Terminal Aerodrome Forecast
Issued by NWS Amarillo, TX

Current Version | Previous Version | Text Only | Print | Product List | Glossary On
Versions: 1 2 3 4 5 6 7 8 9 10 11 12 13 14 15 16 17 18 19 20 21 22 23 24 25 26 27 28 29 30 31 32 33
000
FTUS44 KAMA 201300 AAB
TAFAMA
TAF AMD
KAMA 201340Z 2014/2112 17007KT P6SM SCT005
      TEMPO 2014/2015 BKN005
     FM201500 15009KT P6SM SCT050
     FM210900 16005KT 6SM BR SCT015 BKN025=

USA.gov is the U.S. government's official web portal to all federal, state and local government web resources and services.